Flat, Alaska
Current Conditions -  °F | °C
As of 7:56 AM on Monday 22 Dec 2014 (Local Time) from PFWS Reporting Station
Overcast Overcast  
Wind Chill:   Ceiling: 2000
Heat Index: 15°   Visibility: 10mi
Dew Point: 13°   Wind: 9mph
Humidity: 91%   Direction: 40°NE
Pressure: 29.74"   Gusts: NA
Location:  58.46°N, 157.48°W
Report Text: PFWS 221656Z AUTO 04008KT 10SM FEW006 SCT015 OVC020 M09/M11 A2974 RMK AO2 SLP076 T10941106 FZRANO
Loading
Personal Weather Stations






























Interactive Weather Map New forecast layout! Learn more

10-Day Weather Forecast

Advertisements
Track Severe Weather on mobile